sensor_id;sensor_type;location;lat;lon;timestamp;temperature;humidity
15922;DHT22;8060;50.948;3.146;2023-08-30T06:07:34;15.30;99.90
15922;DHT22;8060;50.948;3.146;2023-08-30T06:10:02;15.30;99.90
15922;DHT22;8060;50.948;3.146;2023-08-30T06:12:31;15.30;99.90
15922;DHT22;8060;50.948;3.146;2023-08-30T06:14:59;15.40;99.90
15922;DHT22;8060;50.948;3.146;2023-08-30T06:24:08;15.70;99.90
15922;DHT22;8060;50.948;3.146;2023-08-30T06:26:36;15.60;99.90
15922;DHT22;8060;50.948;3.146;2023-08-30T06:29:04;15.70;99.90
15922;DHT22;8060;50.948;3.146;2023-08-30T06:31:32;15.70;99.90
15922;DHT22;8060;50.948;3.146;2023-08-30T06:34:01;15.70;99.90
15922;DHT22;8060;50.948;3.146;2023-08-30T06:36:29;15.80;99.90
15922;DHT22;8060;50.948;3.146;2023-08-30T06:38:57;15.80;99.90
15922;DHT22;8060;50.948;3.146;2023-08-30T06:41:26;15.80;99.90
15922;DHT22;8060;50.948;3.146;2023-08-30T06:43:54;15.90;99.90
15922;DHT22;8060;50.948;3.146;2023-08-30T06:46:23;16.00;99.90
15922;DHT22;8060;50.948;3.146;2023-08-30T06:48:51;16.00;99.90
15922;DHT22;8060;50.948;3.146;2023-08-30T06:51:19;16.10;99.90
15922;DHT22;8060;50.948;3.146;2023-08-30T06:53:47;16.10;99.90
15922;DHT22;8060;50.948;3.146;2023-08-30T06:56:15;16.10;99.90
15922;DHT22;8060;50.948;3.146;2023-08-30T06:58:45;16.20;99.90
15922;DHT22;8060;50.948;3.146;2023-08-30T07:01:13;16.30;99.90
15922;DHT22;8060;50.948;3.146;2023-08-30T07:03:41;16.30;99.90
15922;DHT22;8060;50.948;3.146;2023-08-30T07:06:10;16.40;99.90
15922;DHT22;8060;50.948;3.146;2023-08-30T07:08:38;16.40;99.90
15922;DHT22;8060;50.948;3.146;2023-08-30T07:11:07;16.50;99.90
15922;DHT22;8060;50.948;3.146;2023-08-30T07:13:55;16.70;99.90
15922;DHT22;8060;50.948;3.146;2023-08-30T07:16:23;16.80;99.90
15922;DHT22;8060;50.948;3.146;2023-08-30T07:18:51;16.90;99.90
15922;DHT22;8060;50.948;3.146;2023-08-30T07:21:19;17.00;99.90
15922;DHT22;8060;50.948;3.146;2023-08-30T07:23:47;17.10;99.90
15922;DHT22;8060;50.948;3.146;2023-08-30T07:26:15;17.10;99.90
15922;DHT22;8060;50.948;3.146;2023-08-30T07:28:43;17.10;99.90
15922;DHT22;8060;50.948;3.146;2023-08-30T07:31:13;17.00;99.90
15922;DHT22;8060;50.948;3.146;2023-08-30T07:33:43;17.00;99.90
15922;DHT22;8060;50.948;3.146;2023-08-30T07:36:11;16.90;99.90
15922;DHT22;8060;50.948;3.146;2023-08-30T07:38:39;16.90;99.90
15922;DHT22;8060;50.948;3.146;2023-08-30T07:41:07;16.90;99.90
15922;DHT22;8060;50.948;3.146;2023-08-30T07:43:38;17.00;99.90
15922;DHT22;8060;50.948;3.146;2023-08-30T07:46:06;16.90;99.90
15922;DHT22;8060;50.948;3.146;2023-08-30T07:48:36;16.90;99.90
15922;DHT22;8060;50.948;3.146;2023-08-30T07:51:04;17.00;99.90
15922;DHT22;8060;50.948;3.146;2023-08-30T07:53:32;17.20;99.90
15922;DHT22;8060;50.948;3.146;2023-08-30T07:56:00;17.20;99.90
15922;DHT22;8060;50.948;3.146;2023-08-30T07:58:27;17.30;99.90
15922;DHT22;8060;50.948;3.146;2023-08-30T08:00:56;17.40;99.90
15922;DHT22;8060;50.948;3.146;2023-08-30T08:03:24;17.60;99.90
15922;DHT22;8060;50.948;3.146;2023-08-30T08:05:53;17.60;99.90
15922;DHT22;8060;50.948;3.146;2023-08-30T08:08:21;17.70;99.90
15922;DHT22;8060;50.948;3.146;2023-08-30T08:10:49;17.80;99.90
15922;DHT22;8060;50.948;3.146;2023-08-30T08:13:18;17.80;99.90
15922;DHT22;8060;50.948;3.146;2023-08-30T08:15:46;17.90;99.90
15922;DHT22;8060;50.948;3.146;2023-08-30T08:18:14;18.10;99.90
15922;DHT22;8060;50.948;3.146;2023-08-30T08:20:42;18.20;99.90
15922;DHT22;8060;50.948;3.146;2023-08-30T08:23:12;18.30;99.90
15922;DHT22;8060;50.948;3.146;2023-08-30T08:25:40;18.30;99.90
15922;DHT22;8060;50.948;3.146;2023-08-30T08:28:08;18.20;99.90
15922;DHT22;8060;50.948;3.146;2023-08-30T08:30:37;18.20;99.90
15922;DHT22;8060;50.948;3.146;2023-08-30T08:33:05;18.40;99.90
15922;DHT22;8060;50.948;3.146;2023-08-30T08:35:34;18.60;99.90
15922;DHT22;8060;50.948;3.146;2023-08-30T08:38:02;18.70;99.90
15922;DHT22;8060;50.948;3.146;2023-08-30T08:40:36;18.80;99.90
15922;DHT22;8060;50.948;3.146;2023-08-30T08:43:10;18.90;99.90
15922;DHT22;8060;50.948;3.146;2023-08-30T08:45:39;18.90;99.90
15922;DHT22;8060;50.948;3.146;2023-08-30T08:48:07;18.90;99.90
15922;DHT22;8060;50.948;3.146;2023-08-30T08:50:36;19.10;99.90
15922;DHT22;8060;50.948;3.146;2023-08-30T08:53:05;19.20;99.90
15922;DHT22;8060;50.948;3.146;2023-08-30T08:55:35;19.40;99.90
15922;DHT22;8060;50.948;3.146;2023-08-30T08:58:04;19.50;99.90
15922;DHT22;8060;50.948;3.146;2023-08-30T09:00:32;19.60;99.90
15922;DHT22;8060;50.948;3.146;2023-08-30T09:03:01;19.80;99.90
15922;DHT22;8060;50.948;3.146;2023-08-30T09:05:37;20.00;99.90
15922;DHT22;8060;50.948;3.146;2023-08-30T09:08:06;20.20;99.90
15922;DHT22;8060;50.948;3.146;2023-08-30T09:10:39;20.40;99.90
15922;DHT22;8060;50.948;3.146;2023-08-30T09:13:08;20.30;99.90
15922;DHT22;8060;50.948;3.146;2023-08-30T09:15:36;20.10;99.90
15922;DHT22;8060;50.948;3.146;2023-08-30T09:18:13;19.90;99.90
15922;DHT22;8060;50.948;3.146;2023-08-30T09:20:42;20.00;99.90
15922;DHT22;8060;50.948;3.146;2023-08-30T09:23:16;20.10;99.90
15922;DHT22;8060;50.948;3.146;2023-08-30T09:25:46;20.20;99.90
15922;DHT22;8060;50.948;3.146;2023-08-30T09:28:14;20.10;99.90
15922;DHT22;8060;50.948;3.146;2023-08-30T09:30:49;20.10;99.90
15922;DHT22;8060;50.948;3.146;2023-08-30T09:33:20;20.20;99.90
15922;DHT22;8060;50.948;3.146;2023-08-30T09:35:49;20.30;99.90
15922;DHT22;8060;50.948;3.146;2023-08-30T09:38:18;20.40;99.90
15922;DHT22;8060;50.948;3.146;2023-08-30T09:40:47;20.50;99.90
15922;DHT22;8060;50.948;3.146;2023-08-30T09:43:18;20.60;99.90
15922;DHT22;8060;50.948;3.146;2023-08-30T09:45:48;20.70;99.90
15922;DHT22;8060;50.948;3.146;2023-08-30T09:48:21;21.00;99.90
15922;DHT22;8060;50.948;3.146;2023-08-30T09:50:53;21.10;99.90
15922;DHT22;8060;50.948;3.146;2023-08-30T09:53:24;21.30;99.90
15922;DHT22;8060;50.948;3.146;2023-08-30T09:55:55;21.40;99.90
15922;DHT22;8060;50.948;3.146;2023-08-30T09:58:25;21.50;99.90
15922;DHT22;8060;50.948;3.146;2023-08-30T10:00:56;21.90;99.90
15922;DHT22;8060;50.948;3.146;2023-08-30T10:03:25;22.00;99.90
15922;DHT22;8060;50.948;3.146;2023-08-30T10:05:59;22.10;99.90
15922;DHT22;8060;50.948;3.146;2023-08-30T10:08:30;22.40;99.90
15922;DHT22;8060;50.948;3.146;2023-08-30T10:11:01;22.50;99.90
15922;DHT22;8060;50.948;3.146;2023-08-30T10:13:29;22.60;99.90
15922;DHT22;8060;50.948;3.146;2023-08-30T10:16:01;22.60;99.90
15922;DHT22;8060;50.948;3.146;2023-08-30T10:18:33;22.50;99.90
15922;DHT22;8060;50.948;3.146;2023-08-30T10:21:09;22.60;99.90
15922;DHT22;8060;50.948;3.146;2023-08-30T10:23:40;22.50;99.90
15922;DHT22;8060;50.948;3.146;2023-08-30T10:26:10;22.80;99.90
15922;DHT22;8060;50.948;3.146;2023-08-30T10:28:39;22.40;99.90
15922;DHT22;8060;50.948;3.146;2023-08-30T10:31:08;22.40;99.90
15922;DHT22;8060;50.948;3.146;2023-08-30T10:33:46;22.40;99.90
15922;DHT22;8060;50.948;3.146;2023-08-30T10:36:21;22.50;99.90
15922;DHT22;8060;50.948;3.146;2023-08-30T10:38:49;22.80;99.90
15922;DHT22;8060;50.948;3.146;2023-08-30T10:41:23;23.00;99.90
15922;DHT22;8060;50.948;3.146;2023-08-30T10:43:52;22.70;99.90
15922;DHT22;8060;50.948;3.146;2023-08-30T10:46:30;22.40;99.90
15922;DHT22;8060;50.948;3.146;2023-08-30T10:49:08;22.10;99.90
15922;DHT22;8060;50.948;3.146;2023-08-30T10:51:38;22.10;99.90
15922;DHT22;8060;50.948;3.146;2023-08-30T10:54:13;22.20;99.90
15922;DHT22;8060;50.948;3.146;2023-08-30T10:56:54;22.60;99.90
15922;DHT22;8060;50.948;3.146;2023-08-30T10:59:23;22.50;99.90
15922;DHT22;8060;50.948;3.146;2023-08-30T11:01:52;22.50;99.90
15922;DHT22;8060;50.948;3.146;2023-08-30T11:04:24;22.60;99.90
15922;DHT22;8060;50.948;3.146;2023-08-30T11:06:52;22.90;99.90
15922;DHT22;8060;50.948;3.146;2023-08-30T11:09:23;22.90;99.90
15922;DHT22;8060;50.948;3.146;2023-08-30T11:11:53;22.90;99.90
15922;DHT22;8060;50.948;3.146;2023-08-30T11:14:21;23.20;99.90
15922;DHT22;8060;50.948;3.146;2023-08-30T11:16:49;23.40;99.90
15922;DHT22;8060;50.948;3.146;2023-08-30T11:19:17;23.50;99.90
15922;DHT22;8060;50.948;3.146;2023-08-30T11:21:46;23.60;99.90
15922;DHT22;8060;50.948;3.146;2023-08-30T11:24:15;24.00;99.90
15922;DHT22;8060;50.948;3.146;2023-08-30T11:26:43;23.80;99.90
15922;DHT22;8060;50.948;3.146;2023-08-30T11:29:12;23.50;99.90
15922;DHT22;8060;50.948;3.146;2023-08-30T11:31:40;23.00;99.90
15922;DHT22;8060;50.948;3.146;2023-08-30T11:34:12;23.00;99.90
15922;DHT22;8060;50.948;3.146;2023-08-30T11:36:40;23.10;99.90
15922;DHT22;8060;50.948;3.146;2023-08-30T11:39:09;23.00;99.90
15922;DHT22;8060;50.948;3.146;2023-08-30T11:41:38;22.90;99.90
15922;DHT22;8060;50.948;3.146;2023-08-30T11:44:08;22.60;99.90
15922;DHT22;8060;50.948;3.146;2023-08-30T11:46:37;22.30;99.90
15922;DHT22;8060;50.948;3.146;2023-08-30T11:49:05;22.30;99.90
15922;DHT22;8060;50.948;3.146;2023-08-30T11:51:34;22.70;99.90
15922;DHT22;8060;50.948;3.146;2023-08-30T11:54:02;23.00;99.90
15922;DHT22;8060;50.948;3.146;2023-08-30T11:56:31;23.40;99.90
15922;DHT22;8060;50.948;3.146;2023-08-30T11:59:01;23.10;99.90
15922;DHT22;8060;50.948;3.146;2023-08-30T12:01:29;23.10;99.90
15922;DHT22;8060;50.948;3.146;2023-08-30T12:04:09;23.30;99.90
15922;DHT22;8060;50.948;3.146;2023-08-30T12:06:37;23.00;99.90
15922;DHT22;8060;50.948;3.146;2023-08-30T12:09:05;22.70;99.90
15922;DHT22;8060;50.948;3.146;2023-08-30T12:11:36;22.50;99.90
15922;DHT22;8060;50.948;3.146;2023-08-30T12:14:04;22.80;99.90
15922;DHT22;8060;50.948;3.146;2023-08-30T12:16:32;22.90;99.90
15922;DHT22;8060;50.948;3.146;2023-08-30T12:19:09;22.70;99.90
15922;DHT22;8060;50.948;3.146;2023-08-30T12:21:41;22.50;99.90
15922;DHT22;8060;50.948;3.146;2023-08-30T12:24:10;22.30;99.90
15922;DHT22;8060;50.948;3.146;2023-08-30T12:26:38;22.20;99.90
15922;DHT22;8060;50.948;3.146;2023-08-30T12:29:06;22.30;99.90
15922;DHT22;8060;50.948;3.146;2023-08-30T12:31:34;21.90;99.90
15922;DHT22;8060;50.948;3.146;2023-08-30T12:34:02;21.60;99.90
15922;DHT22;8060;50.948;3.146;2023-08-30T12:36:32;21.60;99.90
15922;DHT22;8060;50.948;3.146;2023-08-30T12:39:00;21.90;99.90
15922;DHT22;8060;50.948;3.146;2023-08-30T12:41:28;22.40;99.90
15922;DHT22;8060;50.948;3.146;2023-08-30T12:43:56;22.50;99.90
15922;DHT22;8060;50.948;3.146;2023-08-30T12:46:25;22.30;99.90
15922;DHT22;8060;50.948;3.146;2023-08-30T12:48:53;22.30;99.90
15922;DHT22;8060;50.948;3.146;2023-08-30T12:51:25;22.30;99.90
15922;DHT22;8060;50.948;3.146;2023-08-30T12:53:54;22.60;99.90
15922;DHT22;8060;50.948;3.146;2023-08-30T12:56:22;22.90;99.90
15922;DHT22;8060;50.948;3.146;2023-08-30T12:58:50;23.00;99.90
15922;DHT22;8060;50.948;3.146;2023-08-30T13:01:19;23.00;99.90
15922;DHT22;8060;50.948;3.146;2023-08-30T13:03:47;22.60;99.90
15922;DHT22;8060;50.948;3.146;2023-08-30T13:06:15;22.40;99.90
15922;DHT22;8060;50.948;3.146;2023-08-30T13:08:43;22.60;99.90
15922;DHT22;8060;50.948;3.146;2023-08-30T13:11:12;22.90;99.90
15922;DHT22;8060;50.948;3.146;2023-08-30T13:13:40;23.10;99.90
15922;DHT22;8060;50.948;3.146;2023-08-30T13:16:09;23.60;99.90
15922;DHT22;8060;50.948;3.146;2023-08-30T13:18:37;24.00;99.90
15922;DHT22;8060;50.948;3.146;2023-08-30T13:21:05;24.10;99.90
15922;DHT22;8060;50.948;3.146;2023-08-30T13:23:33;24.10;99.90
15922;DHT22;8060;50.948;3.146;2023-08-30T13:26:01;24.00;99.90
15922;DHT22;8060;50.948;3.146;2023-08-30T13:28:31;23.80;99.90
15922;DHT22;8060;50.948;3.146;2023-08-30T13:30:59;23.90;99.90
15922;DHT22;8060;50.948;3.146;2023-08-30T13:33:29;23.90;99.90
15922;DHT22;8060;50.948;3.146;2023-08-30T13:35:57;24.10;99.90
15922;DHT22;8060;50.948;3.146;2023-08-30T13:38:25;24.00;99.90
15922;DHT22;8060;50.948;3.146;2023-08-30T13:40:58;23.80;99.90
15922;DHT22;8060;50.948;3.146;2023-08-30T13:43:26;23.50;99.90
15922;DHT22;8060;50.948;3.146;2023-08-30T13:45:59;23.60;99.90
15922;DHT22;8060;50.948;3.146;2023-08-30T13:48:28;23.80;99.90
15922;DHT22;8060;50.948;3.146;2023-08-30T13:50:56;23.50;99.90
15922;DHT22;8060;50.948;3.146;2023-08-30T13:53:24;23.40;99.90
15922;DHT22;8060;50.948;3.146;2023-08-30T13:55:52;23.50;99.90
15922;DHT22;8060;50.948;3.146;2023-08-30T13:58:20;23.80;99.90
15922;DHT22;8060;50.948;3.146;2023-08-30T14:00:49;24.30;99.90
15922;DHT22;8060;50.948;3.146;2023-08-30T14:03:18;24.40;99.90
15922;DHT22;8060;50.948;3.146;2023-08-30T14:05:46;24.00;99.90
15922;DHT22;8060;50.948;3.146;2023-08-30T14:08:14;23.60;99.90
15922;DHT22;8060;50.948;3.146;2023-08-30T14:10:43;23.60;99.90
15922;DHT22;8060;50.948;3.146;2023-08-30T14:13:11;23.70;99.90
15922;DHT22;8060;50.948;3.146;2023-08-30T14:15:40;23.70;99.90
15922;DHT22;8060;50.948;3.146;2023-08-30T14:18:09;23.50;99.90
15922;DHT22;8060;50.948;3.146;2023-08-30T14:20:40;23.30;99.90
15922;DHT22;8060;50.948;3.146;2023-08-30T14:23:09;23.10;99.90
15922;DHT22;8060;50.948;3.146;2023-08-30T14:25:39;22.70;99.90
15922;DHT22;8060;50.948;3.146;2023-08-30T14:28:07;22.60;99.90
15922;DHT22;8060;50.948;3.146;2023-08-30T14:30:36;22.20;99.90
15922;DHT22;8060;50.948;3.146;2023-08-30T14:33:04;21.70;99.90
15922;DHT22;8060;50.948;3.146;2023-08-30T14:35:32;21.50;99.90
15922;DHT22;8060;50.948;3.146;2023-08-30T14:38:02;21.30;99.90
15922;DHT22;8060;50.948;3.146;2023-08-30T14:40:30;21.10;99.90
15922;DHT22;8060;50.948;3.146;2023-08-30T14:42:58;20.90;99.90
15922;DHT22;8060;50.948;3.146;2023-08-30T14:45:26;20.50;99.90
15922;DHT22;8060;50.948;3.146;2023-08-30T14:47:54;20.30;99.90
15922;DHT22;8060;50.948;3.146;2023-08-30T14:50:23;20.20;99.90
15922;DHT22;8060;50.948;3.146;2023-08-30T14:52:51;20.00;99.90
15922;DHT22;8060;50.948;3.146;2023-08-30T14:55:23;20.00;99.90
15922;DHT22;8060;50.948;3.146;2023-08-30T14:57:52;19.90;99.90
15922;DHT22;8060;50.948;3.146;2023-08-30T15:00:21;20.10;99.90
15922;DHT22;8060;50.948;3.146;2023-08-30T15:02:49;20.10;99.90
15922;DHT22;8060;50.948;3.146;2023-08-30T15:05:18;20.40;99.90
15922;DHT22;8060;50.948;3.146;2023-08-30T15:07:46;20.50;99.90
15922;DHT22;8060;50.948;3.146;2023-08-30T15:10:14;20.80;99.90
15922;DHT22;8060;50.948;3.146;2023-08-30T15:12:44;21.10;99.90
15922;DHT22;8060;50.948;3.146;2023-08-30T15:15:13;21.10;99.90
15922;DHT22;8060;50.948;3.146;2023-08-30T15:17:42;21.00;99.90
15922;DHT22;8060;50.948;3.146;2023-08-30T15:20:10;21.00;99.90
15922;DHT22;8060;50.948;3.146;2023-08-30T15:22:39;20.90;99.90
15922;DHT22;8060;50.948;3.146;2023-08-30T15:25:07;20.70;99.90
15922;DHT22;8060;50.948;3.146;2023-08-30T15:27:36;20.60;99.90
15922;DHT22;8060;50.948;3.146;2023-08-30T15:30:07;20.50;99.90
15922;DHT22;8060;50.948;3.146;2023-08-30T15:32:35;20.40;99.90
15922;DHT22;8060;50.948;3.146;2023-08-30T15:35:04;20.40;99.90
15922;DHT22;8060;50.948;3.146;2023-08-30T15:37:32;20.30;99.90
15922;DHT22;8060;50.948;3.146;2023-08-30T15:40:01;20.40;99.90
15922;DHT22;8060;50.948;3.146;2023-08-30T15:42:31;20.70;99.90
15922;DHT22;8060;50.948;3.146;2023-08-30T15:45:00;20.90;99.90
15922;DHT22;8060;50.948;3.146;2023-08-30T15:47:29;20.90;99.90
15922;DHT22;8060;50.948;3.146;2023-08-30T15:49:57;21.10;99.90
15922;DHT22;8060;50.948;3.146;2023-08-30T15:52:25;21.20;99.90
15922;DHT22;8060;50.948;3.146;2023-08-30T15:54:55;21.30;99.90
15922;DHT22;8060;50.948;3.146;2023-08-30T15:57:23;21.30;99.90
15922;DHT22;8060;50.948;3.146;2023-08-30T15:59:51;21.30;99.90
15922;DHT22;8060;50.948;3.146;2023-08-30T16:02:19;21.30;99.90
15922;DHT22;8060;50.948;3.146;2023-08-30T16:04:49;21.30;99.90
15922;DHT22;8060;50.948;3.146;2023-08-30T16:07:17;21.30;99.90
15922;DHT22;8060;50.948;3.146;2023-08-30T16:09:45;21.20;99.90
15922;DHT22;8060;50.948;3.146;2023-08-30T16:12:15;21.10;99.90
15922;DHT22;8060;50.948;3.146;2023-08-30T16:14:43;21.10;99.90
15922;DHT22;8060;50.948;3.146;2023-08-30T16:17:11;21.10;99.90
15922;DHT22;8060;50.948;3.146;2023-08-30T16:19:39;21.00;99.90
15922;DHT22;8060;50.948;3.146;2023-08-30T16:22:09;20.90;99.90
15922;DHT22;8060;50.948;3.146;2023-08-30T16:24:37;20.90;99.90
15922;DHT22;8060;50.948;3.146;2023-08-30T16:27:05;20.70;99.90
15922;DHT22;8060;50.948;3.146;2023-08-30T16:29:34;20.70;99.90
15922;DHT22;8060;50.948;3.146;2023-08-30T16:32:02;20.80;99.90
15922;DHT22;8060;50.948;3.146;2023-08-30T16:34:31;20.70;99.90
15922;DHT22;8060;50.948;3.146;2023-08-30T16:37:01;20.60;99.90
15922;DHT22;8060;50.948;3.146;2023-08-30T16:39:30;20.40;99.90
15922;DHT22;8060;50.948;3.146;2023-08-30T16:41:59;20.30;99.90
15922;DHT22;8060;50.948;3.146;2023-08-30T16:44:27;20.40;99.90
15922;DHT22;8060;50.948;3.146;2023-08-30T16:46:55;20.30;99.90
15922;DHT22;8060;50.948;3.146;2023-08-30T16:49:24;20.20;99.90
15922;DHT22;8060;50.948;3.146;2023-08-30T16:51:53;20.20;99.90
15922;DHT22;8060;50.948;3.146;2023-08-30T16:54:21;20.30;99.90
15922;DHT22;8060;50.948;3.146;2023-08-30T16:56:51;20.40;99.90
15922;DHT22;8060;50.948;3.146;2023-08-30T16:59:20;20.20;99.90
15922;DHT22;8060;50.948;3.146;2023-08-30T17:01:49;20.30;99.90
15922;DHT22;8060;50.948;3.146;2023-08-30T17:04:18;20.20;99.90
15922;DHT22;8060;50.948;3.146;2023-08-30T17:06:46;20.00;99.90
15922;DHT22;8060;50.948;3.146;2023-08-30T17:09:14;20.00;99.90
15922;DHT22;8060;50.948;3.146;2023-08-30T17:11:42;20.00;99.90
15922;DHT22;8060;50.948;3.146;2023-08-30T17:14:14;19.90;99.90
15922;DHT22;8060;50.948;3.146;2023-08-30T17:16:42;19.90;99.90
15922;DHT22;8060;50.948;3.146;2023-08-30T17:19:11;19.70;99.90
15922;DHT22;8060;50.948;3.146;2023-08-30T17:21:39;19.60;99.90
15922;DHT22;8060;50.948;3.146;2023-08-30T17:24:07;19.50;99.90
15922;DHT22;8060;50.948;3.146;2023-08-30T17:26:35;19.50;99.90
15922;DHT22;8060;50.948;3.146;2023-08-30T17:29:03;19.50;99.90
15922;DHT22;8060;50.948;3.146;2023-08-30T17:31:34;19.50;99.90
15922;DHT22;8060;50.948;3.146;2023-08-30T17:34:02;19.50;99.90
15922;DHT22;8060;50.948;3.146;2023-08-30T17:36:30;19.60;99.90
15922;DHT22;8060;50.948;3.146;2023-08-30T17:39:02;19.60;99.90
15922;DHT22;8060;50.948;3.146;2023-08-30T17:41:31;19.60;99.90
15922;DHT22;8060;50.948;3.146;2023-08-30T17:44:00;19.60;99.90
15922;DHT22;8060;50.948;3.146;2023-08-30T17:46:28;19.60;99.90
15922;DHT22;8060;50.948;3.146;2023-08-30T17:49:01;19.50;99.90
15922;DHT22;8060;50.948;3.146;2023-08-30T17:51:29;19.50;99.90
15922;DHT22;8060;50.948;3.146;2023-08-30T17:53:57;19.40;99.90
15922;DHT22;8060;50.948;3.146;2023-08-30T17:56:25;19.30;99.90
15922;DHT22;8060;50.948;3.146;2023-08-30T17:58:54;19.30;99.90
15922;DHT22;8060;50.948;3.146;2023-08-30T18:01:22;19.20;99.90
15922;DHT22;8060;50.948;3.146;2023-08-30T18:03:54;19.20;99.90
15922;DHT22;8060;50.948;3.146;2023-08-30T18:06:24;19.10;99.90
15922;DHT22;8060;50.948;3.146;2023-08-30T18:08:52;19.00;99.90
15922;DHT22;8060;50.948;3.146;2023-08-30T18:11:22;19.00;99.90
15922;DHT22;8060;50.948;3.146;2023-08-30T18:13:50;19.00;99.90
